Time;durP1;ratioP1;P1;durP2;ratioP2;P2;SDS_P1;SDS_P2;PMS_P1;PMS_P2;Temp;Humidity;BMP_temperature;BMP_pressure;BME280_temperature;BME280_humidity;BME280_pressure;Samples;Min_cycle;Max_cycle;Signal;HPM_P1;HPM_P2
2021/11/13 00:02:24;;;;;;;2.60;1.90;;;22.60;50.30;;;;;;5034355;28;20619;-59
2021/11/13 00:04:50;;;;;;;2.38;1.67;;;22.60;50.30;;;;;;5042933;28;20029;-58
2021/11/13 00:07:16;;;;;;;3.47;1.80;;;22.60;50.30;;;;;;5045880;28;20032;-56
2021/11/13 00:09:42;;;;;;;3.03;1.80;;;22.50;50.30;;;;;;5038594;28;20036;-58
2021/11/13 00:12:08;;;;;;;2.00;1.50;;;22.50;50.30;;;;;;5044938;28;20029;-57
2021/11/13 00:14:34;;;;;;;2.50;1.75;;;22.50;50.30;;;;;;5033388;28;20030;-55
2021/11/13 00:17:00;;;;;;;2.30;1.60;;;22.50;50.30;;;;;;5039213;28;20472;-59
2021/11/13 00:19:26;;;;;;;2.78;1.63;;;22.40;50.30;;;;;;5038343;28;20038;-59
2021/11/13 00:21:51;;;;;;;2.88;1.98;;;22.40;50.30;;;;;;5036971;28;20028;-59
2021/11/13 00:24:17;;;;;;;2.42;1.80;;;22.40;50.40;;;;;;5035968;28;20097;-57
2021/11/13 00:26:43;;;;;;;2.92;1.98;;;22.40;50.30;;;;;;5034396;28;20472;-58
2021/11/13 00:29:09;;;;;;;3.10;1.90;;;22.40;50.40;;;;;;5036944;28;20033;-59
2021/11/13 00:31:35;;;;;;;2.60;1.70;;;22.30;50.30;;;;;;5043581;28;20060;-58
2021/11/13 00:34:01;;;;;;;3.38;1.70;;;22.30;50.30;;;;;;5034093;28;20029;-58
2021/11/13 00:36:28;;;;;;;2.63;1.80;;;22.30;50.30;;;;;;5042101;28;20075;-59
2021/11/13 00:38:54;;;;;;;3.83;1.50;;;22.30;50.40;;;;;;5030164;28;20079;-60
2021/11/13 00:41:20;;;;;;;2.40;1.70;;;22.30;50.40;;;;;;5041348;28;20044;-59
2021/11/13 00:43:47;;;;;;;2.35;1.50;;;22.30;50.40;;;;;;5038519;28;20155;-59
2021/11/13 00:46:13;;;;;;;2.40;1.67;;;22.30;50.40;;;;;;5036924;28;20827;-59
2021/11/13 00:48:38;;;;;;;2.28;1.70;;;22.20;50.40;;;;;;5035188;28;20025;-57
2021/11/13 00:51:04;;;;;;;2.40;1.58;;;22.20;50.40;;;;;;5035203;28;20027;-59
2021/11/13 00:53:32;;;;;;;2.55;1.73;;;22.20;50.40;;;;;;5040017;28;20049;-57
2021/11/13 00:55:58;;;;;;;2.45;1.70;;;22.20;50.50;;;;;;5037491;28;20021;-56
2021/11/13 00:58:24;;;;;;;2.85;1.90;;;22.10;50.40;;;;;;5035505;28;20078;-58
2021/11/13 01:00:50;;;;;;;3.45;1.67;;;22.10;50.40;;;;;;5044752;28;20053;-56
2021/11/13 01:03:16;;;;;;;2.35;1.73;;;22.10;50.40;;;;;;5032492;28;20037;-59
2021/11/13 01:05:41;;;;;;;3.00;1.63;;;22.10;50.40;;;;;;5040068;28;20124;-55
2021/11/13 01:08:07;;;;;;;2.58;1.50;;;22.10;50.40;;;;;;5034001;28;20069;-58
2021/11/13 01:10:33;;;;;;;2.83;1.77;;;22.10;50.40;;;;;;5034840;28;20503;-59
2021/11/13 01:12:59;;;;;;;2.80;1.70;;;22.00;50.40;;;;;;5040681;28;20092;-57
2021/11/13 01:15:24;;;;;;;2.60;1.70;;;22.00;50.40;;;;;;5038576;28;20077;-56
2021/11/13 01:17:50;;;;;;;1.88;1.40;;;22.00;50.50;;;;;;5030437;28;20052;-56
2021/11/13 01:20:18;;;;;;;2.90;1.55;;;22.00;50.50;;;;;;5036909;28;20048;-59
2021/11/13 01:22:45;;;;;;;2.60;1.67;;;22.00;50.50;;;;;;5041694;28;20152;-58
2021/11/13 01:25:11;;;;;;;2.30;1.70;;;21.90;50.50;;;;;;5035227;28;20159;-59
2021/11/13 01:27:37;;;;;;;2.13;1.55;;;21.90;50.60;;;;;;5034049;28;20131;-58
2021/11/13 01:30:06;;;;;;;2.60;1.60;;;21.90;50.50;;;;;;5042830;28;20037;-59
2021/11/13 01:32:32;;;;;;;2.40;1.60;;;21.90;50.50;;;;;;5037733;28;20072;-59
2021/11/13 01:34:58;;;;;;;2.53;1.70;;;21.90;50.50;;;;;;5036976;28;20069;-58
2021/11/13 01:37:24;;;;;;;2.33;1.52;;;21.90;50.50;;;;;;5039897;28;20837;-59
2021/11/13 01:39:49;;;;;;;2.40;1.60;;;21.90;50.50;;;;;;5035768;28;20029;-56
2021/11/13 01:42:15;;;;;;;1.90;1.38;;;21.80;50.50;;;;;;5035484;28;20025;-58
2021/11/13 01:44:40;;;;;;;2.80;1.55;;;21.80;50.50;;;;;;5035646;28;20029;-58
2021/11/13 01:47:07;;;;;;;2.28;1.60;;;21.80;50.60;;;;;;5030895;28;20025;-53
2021/11/13 01:49:37;;;;;;;1.95;1.40;;;21.80;50.60;;;;;;5039424;28;20037;-55
2021/11/13 01:52:10;;;;;;;2.22;1.58;;;21.80;50.70;;;;;;5040881;28;20025;-58
2021/11/13 01:54:39;;;;;;;2.60;1.60;;;21.80;50.60;;;;;;5034396;28;20576;-53
2021/11/13 01:57:09;;;;;;;2.65;1.42;;;21.70;50.60;;;;;;5037632;28;20036;-57
2021/11/13 01:59:36;;;;;;;1.98;1.40;;;21.70;50.60;;;;;;5038350;28;20037;-58
2021/11/13 02:02:02;;;;;;;2.22;1.60;;;21.70;50.60;;;;;;5038406;28;20128;-59
2021/11/13 02:04:28;;;;;;;2.65;1.50;;;21.70;50.70;;;;;;5036997;28;20025;-54
2021/11/13 02:06:53;;;;;;;2.08;1.60;;;21.70;50.70;;;;;;5041130;28;20437;-58
2021/11/13 02:09:19;;;;;;;2.70;1.50;;;21.60;50.70;;;;;;5030387;28;20077;-59
2021/11/13 02:11:45;;;;;;;2.08;1.30;;;21.60;50.70;;;;;;5035379;28;20070;-56
2021/11/13 02:14:10;;;;;;;2.67;1.75;;;21.60;50.70;;;;;;5036439;28;20093;-56
2021/11/13 02:16:36;;;;;;;2.20;1.60;;;21.60;50.70;;;;;;5036138;28;20066;-57
2021/11/13 02:19:02;;;;;;;2.25;1.40;;;21.60;50.70;;;;;;5034577;28;20655;-58
2021/11/13 02:21:27;;;;;;;2.00;1.50;;;21.60;50.70;;;;;;5037927;28;20113;-56
2021/11/13 02:23:54;;;;;;;3.17;1.50;;;21.60;50.80;;;;;;5032258;28;20025;-56
2021/11/13 02:26:22;;;;;;;2.40;1.50;;;21.60;50.80;;;;;;5034896;28;20082;-55
2021/11/13 02:28:48;;;;;;;2.10;1.70;;;21.50;50.80;;;;;;5035506;28;20417;-55
2021/11/13 02:31:14;;;;;;;2.00;1.42;;;21.50;50.80;;;;;;5043065;28;20421;-54
2021/11/13 02:33:40;;;;;;;2.15;1.60;;;21.50;50.80;;;;;;5038931;28;20045;-58
2021/11/13 02:36:10;;;;;;;1.90;1.50;;;21.50;50.90;;;;;;5036159;28;20384;-58
2021/11/13 02:38:39;;;;;;;2.20;1.50;;;21.50;50.90;;;;;;5030820;28;20048;-55
2021/11/13 02:41:09;;;;;;;2.10;1.50;;;21.50;50.90;;;;;;5041593;28;20024;-59
2021/11/13 02:43:35;;;;;;;;;;;21.50;50.90;;;;;;5031503;28;20038;-58
2021/11/13 02:46:03;;;;;;;2.00;1.50;;;21.50;50.90;;;;;;5039813;28;21640;-58
2021/11/13 02:48:33;;;;;;;2.55;1.58;;;21.40;50.90;;;;;;5032690;28;20094;-59
2021/11/13 02:50:59;;;;;;;2.25;1.50;;;21.40;50.90;;;;;;5039879;28;20071;-57
2021/11/13 02:53:27;;;;;;;2.33;1.50;;;21.40;50.90;;;;;;5027945;28;20723;-58
2021/11/13 02:55:55;;;;;;;2.22;1.50;;;21.40;51.00;;;;;;5041622;28;20511;-54
2021/11/13 02:58:23;;;;;;;1.83;1.40;;;21.40;51.00;;;;;;5033725;28;20147;-58
2021/11/13 03:00:53;;;;;;;2.25;1.52;;;21.40;51.00;;;;;;5032235;28;20045;-56
2021/11/13 03:03:21;;;;;;;2.25;1.60;;;21.40;51.00;;;;;;5041690;28;20055;-59
2021/11/13 03:05:50;;;;;;;2.33;1.50;;;21.30;51.00;;;;;;5039468;28;20029;-57
2021/11/13 03:08:24;;;;;;;1.95;1.40;;;21.30;51.00;;;;;;5034227;28;20044;-57
2021/11/13 03:10:51;;;;;;;1.60;1.30;;;21.30;51.00;;;;;;5030540;28;20132;-59
2021/11/13 03:13:17;;;;;;;2.17;1.40;;;21.30;51.00;;;;;;5037866;28;20108;-56
2021/11/13 03:15:43;;;;;;;1.90;1.30;;;21.30;51.00;;;;;;5033211;28;20098;-58
2021/11/13 03:18:08;;;;;;;1.70;1.30;;;21.30;51.10;;;;;;5040952;28;20469;-60
2021/11/13 03:20:34;;;;;;;2.20;1.50;;;21.30;51.10;;;;;;5036680;28;20532;-57
2021/11/13 03:23:01;;;;;;;2.15;1.48;;;21.30;51.10;;;;;;5039397;28;20044;-57
2021/11/13 03:25:37;;;;;;;2.30;1.50;;;21.30;51.10;;;;;;5040958;28;20044;-58
2021/11/13 03:28:07;;;;;;;1.70;1.25;;;21.20;51.10;;;;;;5040028;28;20032;-57
2021/11/13 03:30:33;;;;;;;2.10;1.50;;;21.30;51.10;;;;;;5032379;28;20552;-55
2021/11/13 03:32:58;;;;;;;2.20;1.50;;;21.20;51.10;;;;;;5046768;28;20084;-54
2021/11/13 03:35:28;;;;;;;2.00;1.50;;;21.20;51.10;;;;;;5041727;28;20155;-59
2021/11/13 03:38:03;;;;;;;1.77;1.30;;;21.20;51.10;;;;;;5038496;28;20028;-58
2021/11/13 03:40:29;;;;;;;2.13;1.42;;;21.20;51.10;;;;;;5035138;28;20048;-59
2021/11/13 03:42:55;;;;;;;1.85;1.30;;;21.20;51.10;;;;;;5036456;28;20356;-57
2021/11/13 03:45:21;;;;;;;2.00;1.40;;;21.20;51.20;;;;;;5037790;28;20033;-55
2021/11/13 03:47:46;;;;;;;2.08;1.38;;;21.20;51.20;;;;;;5041593;28;20028;-59
2021/11/13 03:50:12;;;;;;;1.85;1.40;;;21.10;51.10;;;;;;5037887;28;20045;-55
2021/11/13 03:52:38;;;;;;;1.63;1.40;;;21.10;51.10;;;;;;5046452;28;20052;-51
2021/11/13 03:55:04;;;;;;;1.90;1.40;;;21.10;51.10;;;;;;5038161;28;20040;-58
2021/11/13 03:57:30;;;;;;;1.65;1.33;;;21.10;51.10;;;;;;5030677;28;20045;-56
2021/11/13 03:59:55;;;;;;;1.88;1.30;;;21.10;51.10;;;;;;5036821;28;20658;-54
2021/11/13 04:02:22;;;;;;;1.88;1.40;;;21.10;51.10;;;;;;5034153;28;20041;-57
2021/11/13 04:04:48;;;;;;;1.83;1.40;;;21.10;51.20;;;;;;5035668;28;20021;-59
2021/11/13 04:07:14;;;;;;;1.63;1.20;;;21.10;51.20;;;;;;5044440;28;20144;-59
2021/11/13 04:09:40;;;;;;;1.88;1.30;;;21.10;51.20;;;;;;5034521;28;20141;-59
2021/11/13 04:12:07;;;;;;;2.10;1.50;;;21.10;51.20;;;;;;5037265;28;20103;-56
2021/11/13 04:14:35;;;;;;;1.90;1.30;;;21.10;51.20;;;;;;5037167;28;20037;-56
2021/11/13 04:17:01;;;;;;;1.70;1.30;;;21.00;51.20;;;;;;5042812;28;20033;-59
2021/11/13 04:19:27;;;;;;;1.67;1.20;;;21.10;51.20;;;;;;5041961;28;20052;-58
2021/11/13 04:21:54;;;;;;;1.88;1.30;;;21.10;51.20;;;;;;5036487;28;20076;-59
2021/11/13 04:24:21;;;;;;;1.60;1.25;;;21.00;51.20;;;;;;5039839;28;20064;-58
2021/11/13 04:26:47;;;;;;;3.08;1.40;;;21.10;51.30;;;;;;5033664;28;20476;-56
2021/11/13 04:29:12;;;;;;;1.83;1.40;;;21.10;51.40;;;;;;5034347;28;20052;-53
2021/11/13 04:31:38;;;;;;;2.05;1.27;;;21.00;51.20;;;;;;5043296;28;20098;-59
2021/11/13 04:34:07;;;;;;;2.15;1.40;;;21.00;51.30;;;;;;5038449;28;20087;-58
2021/11/13 04:36:38;;;;;;;1.27;1.08;;;21.00;51.30;;;;;;5038187;28;20041;-56
2021/11/13 04:39:08;;;;;;;1.60;1.20;;;21.00;51.30;;;;;;5040911;28;20367;-59
2021/11/13 04:41:35;;;;;;;1.63;1.30;;;21.00;51.80;;;;;;5029495;28;20653;-58
2021/11/13 04:44:01;;;;;;;1.60;1.40;;;21.00;51.30;;;;;;5038873;28;20521;-59
2021/11/13 04:46:28;;;;;;;1.60;1.30;;;21.00;51.30;;;;;;5037038;28;20107;-57
2021/11/13 04:48:54;;;;;;;1.50;1.10;;;21.00;51.40;;;;;;5042851;28;20030;-59
2021/11/13 04:51:20;;;;;;;1.55;1.25;;;21.00;51.40;;;;;;5037487;28;20043;-57
2021/11/13 04:53:45;;;;;;;1.60;1.23;;;21.00;51.40;;;;;;5034517;28;20079;-58
2021/11/13 04:56:11;;;;;;;1.65;1.30;;;21.00;51.40;;;;;;5035684;28;21044;-57
2021/11/13 04:58:37;;;;;;;1.42;1.15;;;20.90;51.30;;;;;;5038004;28;20594;-59
2021/11/13 05:01:04;;;;;;;1.70;1.33;;;20.90;51.30;;;;;;5040875;28;20060;-56
2021/11/13 05:03:30;;;;;;;1.15;1.05;;;20.90;51.40;;;;;;5035857;28;20037;-58
2021/11/13 05:05:56;;;;;;;1.60;1.10;;;20.90;51.40;;;;;;5040593;28;20090;-58
2021/11/13 05:08:21;;;;;;;2.00;1.23;;;20.90;51.40;;;;;;5039192;28;20033;-59
2021/11/13 05:10:48;;;;;;;1.50;1.20;;;20.90;51.40;;;;;;5033382;28;20032;-58
2021/11/13 05:13:14;;;;;;;1.88;1.20;;;20.90;51.40;;;;;;5039456;28;20102;-56
2021/11/13 05:15:40;;;;;;;1.50;1.17;;;20.90;51.50;;;;;;5035713;28;20041;-58
2021/11/13 05:18:06;;;;;;;1.60;1.17;;;20.90;51.50;;;;;;5034498;28;20109;-59
2021/11/13 05:20:32;;;;;;;1.38;1.08;;;20.90;51.50;;;;;;5038868;28;20033;-59
2021/11/13 05:22:58;;;;;;;1.60;1.20;;;20.90;51.50;;;;;;5035070;28;20108;-52
2021/11/13 05:25:23;;;;;;;1.13;1.02;;;20.90;51.50;;;;;;5038069;28;20105;-59
2021/11/13 05:27:50;;;;;;;1.73;1.20;;;20.80;51.50;;;;;;5037370;28;20033;-59
2021/11/13 05:30:19;;;;;;;1.73;1.20;;;20.80;51.50;;;;;;5041704;28;20033;-59
2021/11/13 05:32:45;;;;;;;1.60;1.20;;;20.80;51.60;;;;;;5034784;28;20060;-57
2021/11/13 05:35:11;;;;;;;1.65;1.20;;;20.90;51.60;;;;;;5040026;28;20029;-55
2021/11/13 05:37:38;;;;;;;1.65;1.17;;;20.80;51.60;;;;;;5035948;28;20025;-58
2021/11/13 05:40:06;;;;;;;1.67;1.27;;;20.80;51.60;;;;;;5041320;28;20100;-60
2021/11/13 05:42:34;;;;;;;1.77;1.30;;;20.80;51.60;;;;;;5040288;28;20116;-59
2021/11/13 05:45:01;;;;;;;1.23;1.08;;;20.80;51.60;;;;;;5035570;28;20637;-59
2021/11/13 05:47:26;;;;;;;1.40;1.10;;;20.80;51.60;;;;;;5037725;28;20784;-58
2021/11/13 05:49:53;;;;;;;1.23;1.10;;;20.80;51.70;;;;;;5042240;28;20033;-58
2021/11/13 05:52:19;;;;;;;1.40;1.13;;;20.80;51.70;;;;;;5032792;28;20123;-55
2021/11/13 05:54:45;;;;;;;1.63;1.20;;;20.80;51.70;;;;;;5037123;28;20029;-57
2021/11/13 05:57:11;;;;;;;1.88;1.10;;;20.80;51.70;;;;;;5036895;28;20051;-59
2021/11/13 05:59:37;;;;;;;1.73;1.10;;;20.80;51.70;;;;;;5037625;28;20033;-56
2021/11/13 06:02:04;;;;;;;2.00;1.25;;;20.80;51.70;;;;;;5037028;28;20041;-56
2021/11/13 06:04:29;;;;;;;1.42;1.15;;;20.80;51.70;;;;;;5035260;28;20017;-56
2021/11/13 06:06:55;;;;;;;1.52;1.20;;;20.80;51.70;;;;;;5035229;28;20034;-58
2021/11/13 06:09:21;;;;;;;1.80;1.30;;;20.80;51.70;;;;;;5036111;28;20033;-56
2021/11/13 06:11:46;;;;;;;1.67;1.13;;;20.70;51.70;;;;;;5033759;28;20848;-57
2021/11/13 06:14:12;;;;;;;1.50;1.20;;;20.70;51.70;;;;;;5037110;28;20016;-55
2021/11/13 06:16:37;;;;;;;2.17;1.30;;;20.70;51.70;;;;;;5034118;28;20070;-56
2021/11/13 06:19:03;;;;;;;1.75;1.20;;;20.70;51.70;;;;;;5031315;28;22446;-59
2021/11/13 06:21:29;;;;;;;1.33;1.10;;;20.70;51.70;;;;;;5039211;28;20066;-58
2021/11/13 06:23:54;;;;;;;1.77;1.17;;;20.70;51.70;;;;;;5035597;28;20074;-58
2021/11/13 06:26:20;;;;;;;1.30;1.00;;;20.70;51.70;;;;;;5035749;28;20028;-58
2021/11/13 06:28:46;;;;;;;1.50;1.20;;;20.70;51.70;;;;;;5032220;28;20052;-59
2021/11/13 06:31:12;;;;;;;1.60;1.27;;;20.70;51.80;;;;;;5039405;28;20040;-57
2021/11/13 06:33:38;;;;;;;1.55;1.20;;;20.70;51.70;;;;;;5037960;28;20410;-57
2021/11/13 06:36:05;;;;;;;1.55;1.20;;;20.70;51.70;;;;;;5033164;28;20132;-59
2021/11/13 06:38:30;;;;;;;1.55;1.17;;;20.70;51.80;;;;;;5035624;28;20477;-58
2021/11/13 06:40:56;;;;;;;1.30;1.10;;;20.70;51.80;;;;;;5038782;28;20078;-55
2021/11/13 06:43:22;;;;;;;1.77;1.20;;;20.70;51.80;;;;;;5033074;28;20521;-59
2021/11/13 06:45:48;;;;;;;1.10;1.00;;;20.70;51.80;;;;;;5036634;28;20039;-58
2021/11/13 06:48:13;;;;;;;1.60;1.20;;;20.70;51.80;;;;;;5030689;28;20071;-59
2021/11/13 06:50:39;;;;;;;1.40;1.02;;;20.70;51.80;;;;;;5033928;28;20029;-59
2021/11/13 06:53:05;;;;;;;1.45;1.10;;;20.70;51.80;;;;;;5030395;28;20025;-56
2021/11/13 06:55:31;;;;;;;1.95;1.20;;;20.70;51.80;;;;;;5036569;28;20090;-59
2021/11/13 06:57:57;;;;;;;1.40;1.20;;;20.70;51.80;;;;;;5036779;28;20041;-59
2021/11/13 07:00:24;;;;;;;1.60;1.23;;;20.70;51.80;;;;;;5037412;28;20447;-58
2021/11/13 07:02:49;;;;;;;1.60;1.10;;;20.60;51.80;;;;;;5038759;28;20025;-56
2021/11/13 07:05:15;;;;;;;1.70;1.17;;;20.70;51.80;;;;;;5032805;28;20091;-58
2021/11/13 07:07:42;;;;;;;1.63;1.20;;;20.60;51.80;;;;;;5033305;28;20028;-58
2021/11/13 07:10:11;;;;;;;1.25;1.00;;;20.60;51.80;;;;;;5041583;28;20028;-59
2021/11/13 07:12:38;;;;;;;1.60;1.20;;;20.60;51.80;;;;;;5030999;28;20120;-58
2021/11/13 07:15:04;;;;;;;1.83;1.20;;;20.60;51.80;;;;;;5028926;28;20040;-57
2021/11/13 07:17:30;;;;;;;1.85;1.30;;;20.60;51.80;;;;;;5033102;28;20045;-59
2021/11/13 07:19:55;;;;;;;1.50;1.02;;;20.60;51.70;;;;;;5030026;28;20020;-56
2021/11/13 07:22:22;;;;;;;1.30;1.10;;;20.60;51.80;;;;;;5036152;28;20058;-58
2021/11/13 07:24:47;;;;;;;1.60;1.05;;;20.60;51.70;;;;;;5030009;28;20078;-57
2021/11/13 07:27:13;;;;;;;1.25;1.10;;;20.60;51.70;;;;;;5033900;28;20036;-58
2021/11/13 07:29:47;;;;;;;1.55;1.10;;;20.60;51.70;;;;;;5033747;28;20048;-58
2021/11/13 07:32:15;;;;;;;1.15;1.00;;;20.60;51.70;;;;;;5029783;28;20055;-59
2021/11/13 07:34:41;;;;;;;1.85;1.30;;;20.60;51.70;;;;;;5034801;28;20087;-58
2021/11/13 07:37:07;;;;;;;1.60;1.20;;;20.50;51.60;;;;;;5029328;28;20025;-58
2021/11/13 07:39:33;;;;;;;1.55;1.17;;;20.60;51.60;;;;;;5037242;28;20040;-58
2021/11/13 07:41:58;;;;;;;1.80;1.23;;;20.60;51.70;;;;;;5028688;28;20029;-57
2021/11/13 07:44:24;;;;;;;1.95;1.25;;;20.60;51.60;;;;;;5029037;28;20609;-58
2021/11/13 07:46:50;;;;;;;1.80;1.20;;;20.60;51.70;;;;;;5033785;28;20469;-59
2021/11/13 07:49:16;;;;;;;1.70;1.30;;;20.60;51.70;;;;;;5030645;28;20045;-59
2021/11/13 07:51:41;;;;;;;1.90;1.30;;;20.60;51.70;;;;;;5028486;28;20705;-57
2021/11/13 07:54:10;;;;;;;1.98;1.20;;;20.60;51.60;;;;;;5032674;28;20365;-59
2021/11/13 07:56:36;;;;;;;1.65;1.20;;;20.60;51.60;;;;;;5029751;28;20037;-56
2021/11/13 07:59:03;;;;;;;1.10;1.00;;;20.50;51.60;;;;;;5033974;28;20025;-59
2021/11/13 08:01:28;;;;;;;1.70;1.23;;;20.60;51.70;;;;;;5037114;28;20033;-58
2021/11/13 08:03:54;;;;;;;2.05;1.20;;;20.50;51.60;;;;;;5038192;28;20025;-58
2021/11/13 08:06:20;;;;;;;1.70;1.25;;;20.50;51.60;;;;;;5036561;28;20029;-59
2021/11/13 08:08:45;;;;;;;2.40;1.40;;;20.50;51.60;;;;;;5038202;28;20038;-59
2021/11/13 08:11:11;;;;;;;1.80;1.20;;;20.50;51.60;;;;;;5037317;28;20036;-53
2021/11/13 08:13:39;;;;;;;1.58;1.30;;;20.50;51.60;;;;;;5039384;28;20115;-58
2021/11/13 08:16:05;;;;;;;1.77;1.17;;;20.50;51.60;;;;;;5032004;28;20033;-58
2021/11/13 08:18:31;;;;;;;1.55;1.15;;;20.50;51.70;;;;;;5038794;28;20029;-56
2021/11/13 08:20:59;;;;;;;1.67;1.30;;;20.50;51.70;;;;;;5037624;28;20064;-59
2021/11/13 08:23:25;;;;;;;1.52;1.30;;;20.50;51.70;;;;;;5034268;28;20105;-58
2021/11/13 08:25:52;;;;;;;1.80;1.20;;;20.50;51.70;;;;;;5035331;28;20080;-59
2021/11/13 08:28:19;;;;;;;1.80;1.40;;;20.50;51.70;;;;;;5034128;28;20076;-59
2021/11/13 08:30:46;;;;;;;2.20;1.30;;;20.50;51.70;;;;;;5028300;28;20151;-58
2021/11/13 08:33:12;;;;;;;1.83;1.30;;;20.50;51.70;;;;;;5032499;28;20052;-58
2021/11/13 08:35:39;;;;;;;1.70;1.17;;;20.50;51.70;;;;;;5036223;28;20029;-58
2021/11/13 08:38:07;;;;;;;1.38;1.20;;;20.50;51.70;;;;;;5027222;28;20568;-59
2021/11/13 08:40:35;;;;;;;1.40;1.05;;;20.50;51.70;;;;;;5038394;28;20022;-58
2021/11/13 08:43:02;;;;;;;2.15;1.52;;;20.40;52.20;;;;;;5031661;28;20025;-58
2021/11/13 08:45:28;;;;;;;1.50;1.20;;;20.40;51.70;;;;;;5029913;28;20029;-59
2021/11/13 08:47:54;;;;;;;3.00;1.30;;;20.50;51.80;;;;;;5037973;28;20036;-59
2021/11/13 08:50:24;;;;;;;1.60;1.20;;;20.40;51.80;;;;;;5031934;28;20365;-59
2021/11/13 08:52:51;;;;;;;2.22;1.30;;;20.40;51.70;;;;;;5029757;28;20708;-57
2021/11/13 08:55:18;;;;;;;1.65;1.30;;;20.40;51.70;;;;;;5030652;28;20799;-57
2021/11/13 08:57:45;;;;;;;2.30;1.30;;;20.40;51.80;;;;;;5030988;28;20498;-57
2021/11/13 09:00:14;;;;;;;1.55;1.15;;;20.40;51.80;;;;;;5031014;28;20025;-58
2021/11/13 09:02:40;;;;;;;1.42;1.10;;;20.40;51.80;;;;;;5033072;28;20041;-57
2021/11/13 09:05:07;;;;;;;1.70;1.30;;;20.40;51.80;;;;;;5031654;28;20047;-60
2021/11/13 09:07:34;;;;;;;1.77;1.23;;;20.40;51.80;;;;;;5030120;28;20037;-55
2021/11/13 09:10:00;;;;;;;2.05;1.40;;;20.40;51.80;;;;;;5038628;28;20036;-54
2021/11/13 09:12:27;;;;;;;1.63;1.00;;;20.40;51.80;;;;;;5033452;28;20040;-56
2021/11/13 09:14:55;;;;;;;2.42;1.20;;;20.40;51.90;;;;;;5038154;28;20047;-53
2021/11/13 09:17:21;;;;;;;1.55;1.20;;;20.40;51.80;;;;;;5036946;28;20432;-57
2021/11/13 09:19:48;;;;;;;1.90;1.30;;;20.40;51.90;;;;;;5030659;28;20142;-58
2021/11/13 09:22:14;;;;;;;2.38;1.40;;;20.40;51.90;;;;;;5035637;28;20037;-54
2021/11/13 09:24:39;;;;;;;2.35;1.30;;;20.40;51.90;;;;;;5037227;28;20036;-58
2021/11/13 09:27:05;;;;;;;1.35;1.02;;;20.40;51.90;;;;;;5032869;28;20028;-58
2021/11/13 09:29:31;;;;;;;1.20;1.00;;;20.40;51.90;;;;;;5034546;28;20037;-57
2021/11/13 09:31:57;;;;;;;2.25;1.20;;;20.40;51.90;;;;;;5030774;28;20044;-56
2021/11/13 09:34:22;;;;;;;1.60;1.20;;;20.40;52.00;;;;;;5033358;28;20859;-58
2021/11/13 09:36:49;;;;;;;1.80;1.20;;;20.40;52.00;;;;;;5032551;28;20033;-58
2021/11/13 09:39:16;;;;;;;1.88;1.13;;;20.40;51.90;;;;;;5028381;28;20033;-58
2021/11/13 09:41:43;;;;;;;1.50;1.15;;;20.40;52.00;;;;;;5035640;28;20102;-59
2021/11/13 09:44:09;;;;;;;2.05;1.30;;;20.30;52.00;;;;;;5030045;28;20135;-59
2021/11/13 09:46:35;;;;;;;1.67;1.13;;;20.40;52.00;;;;;;5033145;28;20112;-59
2021/11/13 09:49:01;;;;;;;1.42;1.10;;;20.40;52.10;;;;;;5029793;28;20170;-58
2021/11/13 09:51:28;;;;;;;1.80;1.42;;;20.40;52.10;;;;;;5034973;28;20120;-56
2021/11/13 09:53:54;;;;;;;2.00;1.23;;;20.30;52.00;;;;;;5031565;28;20036;-59
2021/11/13 09:56:21;;;;;;;1.73;1.30;;;20.30;52.00;;;;;;5030854;28;20345;-58
2021/11/13 09:58:47;;;;;;;2.67;1.30;;;20.30;52.00;;;;;;5024874;28;20079;-59
2021/11/13 10:01:15;;;;;;;2.17;1.40;;;20.30;52.10;;;;;;5031859;28;20037;-59
2021/11/13 10:03:43;;;;;;;1.85;1.27;;;20.30;52.10;;;;;;5030862;28;20056;-59
2021/11/13 10:06:13;;;;;;;2.22;1.33;;;20.30;52.10;;;;;;5035634;28;20624;-58
2021/11/13 10:08:43;;;;;;;2.00;1.30;;;20.30;52.10;;;;;;5032375;28;20036;-59
2021/11/13 10:11:12;;;;;;;2.65;1.40;;;20.30;52.10;;;;;;5034251;28;20036;-59
2021/11/13 10:13:38;;;;;;;2.08;1.40;;;20.30;52.10;;;;;;5028307;28;20044;-59
2021/11/13 10:16:14;;;;;;;1.73;1.40;;;20.30;52.10;;;;;;5032420;28;20112;-59
2021/11/13 10:18:44;;;;;;;2.17;1.30;;;20.30;52.10;;;;;;5035359;28;20474;-58
2021/11/13 10:21:19;;;;;;;2.30;1.58;;;20.30;52.10;;;;;;5035556;28;20108;-57
2021/11/13 10:23:49;;;;;;;2.30;1.48;;;20.30;52.20;;;;;;5034882;28;20099;-57
2021/11/13 10:26:30;;;;;;;2.00;1.40;;;20.30;52.20;;;;;;5032521;28;20449;-56
2021/11/13 10:29:01;;;;;;;2.50;1.60;;;20.30;52.20;;;;;;5033816;28;20179;-59
2021/11/13 10:31:34;;;;;;;2.28;1.60;;;20.30;52.20;;;;;;5038424;28;20518;-59
2021/11/13 10:34:11;;;;;;;1.75;1.40;;;20.30;52.20;;;;;;5038741;28;20802;-64
2021/11/13 10:37:04;;;;;;;2.08;1.45;;;20.20;52.20;;;;;;5040221;28;20033;-59
2021/11/13 10:39:33;;;;;;;2.25;1.50;;;20.30;52.30;;;;;;5040891;28;20041;-59
2021/11/13 10:42:17;;;;;;;2.60;1.77;;;20.20;52.30;;;;;;5039594;28;20351;-56
2021/11/13 10:44:58;;;;;;;2.33;1.60;;;20.20;52.30;;;;;;5034834;28;20025;-59
2021/11/13 10:47:46;;;;;;;2.42;1.65;;;20.20;52.30;;;;;;5037474;28;20089;-60
2021/11/13 10:50:19;;;;;;;2.85;1.80;;;20.20;52.40;;;;;;5035142;28;20044;-57
2021/11/13 10:53:13;;;;;;;2.38;1.65;;;20.20;52.40;;;;;;5037814;28;20111;-59
2021/11/13 10:56:16;;;;;;;2.42;1.60;;;20.20;52.40;;;;;;5037951;28;20128;-59
2021/11/13 10:58:52;;;;;;;2.33;1.60;;;20.20;52.40;;;;;;5033877;28;20520;-57
2021/11/13 11:01:23;;;;;;;2.58;1.67;;;20.20;52.40;;;;;;5038055;28;20057;-60
2021/11/13 11:03:53;;;;;;;2.33;1.75;;;20.20;52.40;;;;;;5031225;28;20461;-60
2021/11/13 11:06:25;;;;;;;2.65;1.80;;;20.20;52.40;;;;;;5038173;28;20605;-61
2021/11/13 11:08:52;;;;;;;2.47;1.70;;;20.20;52.50;;;;;;5036915;28;20057;-59
2021/11/13 11:11:31;;;;;;;3.05;1.70;;;20.20;52.50;;;;;;5031598;28;20022;-59
2021/11/13 11:13:59;;;;;;;2.10;1.58;;;20.20;52.50;;;;;;5036101;28;20107;-60
2021/11/13 11:16:28;;;;;;;2.40;1.73;;;20.20;52.60;;;;;;5028890;28;20116;-57
2021/11/13 11:19:10;;;;;;;2.00;1.65;;;20.20;52.60;;;;;;5033144;28;20028;-59
2021/11/13 11:21:41;;;;;;;2.38;1.70;;;20.20;52.50;;;;;;5036050;28;20036;-59
2021/11/13 11:24:15;;;;;;;2.78;1.95;;;20.20;52.90;;;;;;5036965;28;20948;-60
2021/11/13 11:26:43;;;;;;;2.72;1.80;;;20.20;52.90;;;;;;5031288;28;20636;-58
2021/11/13 11:29:10;;;;;;;3.75;2.13;;;20.20;53.00;;;;;;5024688;28;20077;-59
2021/11/13 11:31:49;;;;;;;3.45;2.15;;;20.20;52.90;;;;;;5030814;28;20378;-58
2021/11/13 11:34:26;;;;;;;3.15;1.80;;;20.20;53.00;;;;;;5038437;28;20034;-59
2021/11/13 11:36:54;;;;;;;2.70;2.00;;;20.20;52.90;;;;;;5036557;28;20370;-57
2021/11/13 11:39:20;;;;;;;4.18;2.45;;;20.20;52.80;;;;;;5035782;28;20029;-59
2021/11/13 11:41:46;;;;;;;3.05;2.03;;;20.20;52.80;;;;;;5035752;28;20683;-58
2021/11/13 11:44:16;;;;;;;3.30;1.90;;;20.20;52.70;;;;;;5037352;28;20025;-58
2021/11/13 11:46:42;;;;;;;3.40;2.08;;;20.20;52.70;;;;;;5035962;28;20723;-59
2021/11/13 11:49:10;;;;;;;2.88;1.95;;;20.20;53.40;;;;;;5037536;28;21651;-60
2021/11/13 11:51:36;;;;;;;6.15;2.10;;;20.30;54.40;;;;;;5031994;28;20025;-59
2021/11/13 11:54:06;;;;;;;4.45;2.00;;;20.30;54.90;;;;;;5043884;28;20107;-55
2021/11/13 11:56:33;;;;;;;3.45;2.10;;;20.30;54.80;;;;;;5035294;28;20119;-60
2021/11/13 11:59:02;;;;;;;3.53;1.90;;;20.30;54.40;;;;;;5032751;28;20029;-55
2021/11/13 12:01:33;;;;;;;2.65;1.88;;;20.20;54.20;;;;;;5036043;28;20388;-60
2021/11/13 12:04:20;;;;;;;2.80;1.98;;;20.30;54.00;;;;;;5041474;28;20211;-58
2021/11/13 12:06:48;;;;;;;3.22;2.08;;;20.20;53.80;;;;;;5037581;28;20863;-59
2021/11/13 12:09:14;;;;;;;3.03;1.80;;;20.30;53.70;;;;;;5037520;28;20028;-58
2021/11/13 12:11:42;;;;;;;3.25;2.22;;;20.20;54.10;;;;;;5037498;28;20033;-60
2021/11/13 12:14:32;;;;;;;2.50;1.73;;;20.20;53.50;;;;;;5035979;28;20068;-58
2021/11/13 12:17:24;;;;;;;4.32;2.47;;;20.20;53.50;;;;;;5041444;28;20087;-59
2021/11/13 12:20:05;;;;;;;4.53;2.00;;;20.20;53.40;;;;;;5036740;28;20036;-59
2021/11/13 12:23:01;;;;;;;2.95;1.90;;;20.20;53.40;;;;;;5031378;28;20068;-59
2021/11/13 12:25:41;;;;;;;4.80;2.08;;;20.20;53.40;;;;;;5038498;28;20061;-57
2021/11/13 12:28:14;;;;;;;4.10;2.13;;;20.20;53.40;;;;;;5035701;28;20022;-59
2021/11/13 12:31:01;;;;;;;3.33;2.00;;;20.20;53.30;;;;;;5036256;28;20048;-59
2021/11/13 12:33:26;;;;;;;3.75;2.10;;;20.20;53.90;;;;;;5064021;28;20029;-56
2021/11/13 12:36:06;;;;;;;3.08;2.10;;;20.20;53.40;;;;;;5038672;28;20035;-60
2021/11/13 12:38:37;;;;;;;;;;;20.20;53.40;;;;;;5037997;28;20775;-58
2021/11/13 12:41:30;;;;;;;2.55;1.83;;;20.20;53.50;;;;;;5033537;28;19953;-60
2021/11/13 12:44:00;;;;;;;3.38;2.03;;;20.20;53.40;;;;;;5030003;28;20033;-58
2021/11/13 12:46:27;;;;;;;3.00;2.03;;;20.20;53.50;;;;;;5035713;28;20033;-58
2021/11/13 12:49:18;;;;;;;5.38;2.15;;;20.20;53.50;;;;;;5027947;28;20112;-59
2021/11/13 12:51:44;;;;;;;2.72;2.10;;;20.20;53.60;;;;;;5025074;28;20456;-59
2021/11/13 12:54:20;;;;;;;3.00;2.00;;;20.20;53.60;;;;;;5026529;28;20075;-59